sensor_id;sensor_type;location;lat;lon;timestamp;temperature;humidity
72338;DHT22;60294;64.134;-21.862;2022-08-21T00:00:28;7.50;76.50
72338;DHT22;60294;64.134;-21.862;2022-08-21T00:03:02;7.60;76.20
72338;DHT22;60294;64.134;-21.862;2022-08-21T00:05:29;7.60;75.90
72338;DHT22;60294;64.134;-21.862;2022-08-21T00:07:56;7.60;75.80
72338;DHT22;60294;64.134;-21.862;2022-08-21T00:10:22;7.60;75.80
72338;DHT22;60294;64.134;-21.862;2022-08-21T00:12:48;7.60;75.60
72338;DHT22;60294;64.134;-21.862;2022-08-21T00:15:18;7.50;75.90
72338;DHT22;60294;64.134;-21.862;2022-08-21T00:17:44;7.40;75.90
72338;DHT22;60294;64.134;-21.862;2022-08-21T00:20:13;7.40;75.90
72338;DHT22;60294;64.134;-21.862;2022-08-21T00:22:40;7.40;76.10
72338;DHT22;60294;64.134;-21.862;2022-08-21T00:25:07;7.40;76.40
72338;DHT22;60294;64.134;-21.862;2022-08-21T00:27:34;7.40;76.10
72338;DHT22;60294;64.134;-21.862;2022-08-21T00:30:00;7.30;76.10
72338;DHT22;60294;64.134;-21.862;2022-08-21T00:32:27;7.40;76.10
72338;DHT22;60294;64.134;-21.862;2022-08-21T00:34:54;7.30;76.20
72338;DHT22;60294;64.134;-21.862;2022-08-21T00:37:20;7.20;76.50
72338;DHT22;60294;64.134;-21.862;2022-08-21T00:39:47;7.10;76.60
72338;DHT22;60294;64.134;-21.862;2022-08-21T00:42:13;7.10;76.80
72338;DHT22;60294;64.134;-21.862;2022-08-21T00:44:46;7.10;77.20
72338;DHT22;60294;64.134;-21.862;2022-08-21T00:47:12;7.00;77.30
72338;DHT22;60294;64.134;-21.862;2022-08-21T00:49:39;7.00;77.40
72338;DHT22;60294;64.134;-21.862;2022-08-21T00:52:09;7.00;77.40
72338;DHT22;60294;64.134;-21.862;2022-08-21T00:54:36;7.00;77.20
72338;DHT22;60294;64.134;-21.862;2022-08-21T00:57:10;7.00;77.30
72338;DHT22;60294;64.134;-21.862;2022-08-21T00:59:38;7.00;77.20
72338;DHT22;60294;64.134;-21.862;2022-08-21T01:02:06;7.00;77.30
72338;DHT22;60294;64.134;-21.862;2022-08-21T01:04:33;7.00;77.50
72338;DHT22;60294;64.134;-21.862;2022-08-21T01:06:59;7.10;77.60
72338;DHT22;60294;64.134;-21.862;2022-08-21T01:09:27;7.10;77.40
72338;DHT22;60294;64.134;-21.862;2022-08-21T01:11:53;7.10;77.60
72338;DHT22;60294;64.134;-21.862;2022-08-21T01:14:21;7.10;78.50
72338;DHT22;60294;64.134;-21.862;2022-08-21T01:16:50;7.10;77.60
72338;DHT22;60294;64.134;-21.862;2022-08-21T01:19:17;7.20;77.70
72338;DHT22;60294;64.134;-21.862;2022-08-21T01:21:44;7.10;77.30
72338;DHT22;60294;64.134;-21.862;2022-08-21T01:24:10;7.10;77.60
72338;DHT22;60294;64.134;-21.862;2022-08-21T01:26:37;7.10;77.40
72338;DHT22;60294;64.134;-21.862;2022-08-21T01:31:41;7.10;78.20
72338;DHT22;60294;64.134;-21.862;2022-08-21T01:34:07;7.00;78.10
72338;DHT22;60294;64.134;-21.862;2022-08-21T01:36:34;6.90;77.90
72338;DHT22;60294;64.134;-21.862;2022-08-21T01:39:00;6.80;78.30
72338;DHT22;60294;64.134;-21.862;2022-08-21T01:41:27;6.90;78.30
72338;DHT22;60294;64.134;-21.862;2022-08-21T01:43:54;6.80;78.30
72338;DHT22;60294;64.134;-21.862;2022-08-21T01:46:20;6.70;78.60
72338;DHT22;60294;64.134;-21.862;2022-08-21T01:48:46;6.70;78.90
72338;DHT22;60294;64.134;-21.862;2022-08-21T01:51:11;6.70;79.00
72338;DHT22;60294;64.134;-21.862;2022-08-21T01:53:37;6.70;79.10
72338;DHT22;60294;64.134;-21.862;2022-08-21T01:56:08;6.70;79.00
72338;DHT22;60294;64.134;-21.862;2022-08-21T01:58:34;6.70;78.90
72338;DHT22;60294;64.134;-21.862;2022-08-21T02:01:01;6.70;79.00
72338;DHT22;60294;64.134;-21.862;2022-08-21T02:03:28;6.60;78.90
72338;DHT22;60294;64.134;-21.862;2022-08-21T02:05:54;6.60;79.20
72338;DHT22;60294;64.134;-21.862;2022-08-21T02:08:20;6.60;79.20
72338;DHT22;60294;64.134;-21.862;2022-08-21T02:10:49;6.60;79.30
72338;DHT22;60294;64.134;-21.862;2022-08-21T02:13:15;6.60;79.40
72338;DHT22;60294;64.134;-21.862;2022-08-21T02:15:41;6.60;79.20
72338;DHT22;60294;64.134;-21.862;2022-08-21T02:18:07;6.60;79.00
72338;DHT22;60294;64.134;-21.862;2022-08-21T02:20:36;6.60;79.20
72338;DHT22;60294;64.134;-21.862;2022-08-21T02:23:03;6.60;79.20
72338;DHT22;60294;64.134;-21.862;2022-08-21T02:25:30;6.50;79.20
72338;DHT22;60294;64.134;-21.862;2022-08-21T02:27:57;6.50;79.30
72338;DHT22;60294;64.134;-21.862;2022-08-21T02:30:29;6.50;79.20
72338;DHT22;60294;64.134;-21.862;2022-08-21T02:32:56;6.50;79.20
72338;DHT22;60294;64.134;-21.862;2022-08-21T02:35:22;6.40;79.30
72338;DHT22;60294;64.134;-21.862;2022-08-21T02:37:51;6.40;79.30
72338;DHT22;60294;64.134;-21.862;2022-08-21T02:40:35;6.40;79.50
72338;DHT22;60294;64.134;-21.862;2022-08-21T02:43:03;6.50;79.30
72338;DHT22;60294;64.134;-21.862;2022-08-21T02:45:31;6.40;79.10
72338;DHT22;60294;64.134;-21.862;2022-08-21T02:48:01;6.40;79.50
72338;DHT22;60294;64.134;-21.862;2022-08-21T02:50:35;6.50;79.30
72338;DHT22;60294;64.134;-21.862;2022-08-21T02:53:01;6.50;79.20
72338;DHT22;60294;64.134;-21.862;2022-08-21T02:55:29;6.50;78.90
72338;DHT22;60294;64.134;-21.862;2022-08-21T02:57:56;6.40;79.30
72338;DHT22;60294;64.134;-21.862;2022-08-21T03:00:25;6.40;79.20
72338;DHT22;60294;64.134;-21.862;2022-08-21T03:02:52;6.40;79.00
72338;DHT22;60294;64.134;-21.862;2022-08-21T03:05:19;6.40;79.30
72338;DHT22;60294;64.134;-21.862;2022-08-21T03:07:46;6.30;79.80
72338;DHT22;60294;64.134;-21.862;2022-08-21T03:10:13;6.30;80.00
72338;DHT22;60294;64.134;-21.862;2022-08-21T03:12:39;6.20;80.10
72338;DHT22;60294;64.134;-21.862;2022-08-21T03:15:08;6.30;79.80
72338;DHT22;60294;64.134;-21.862;2022-08-21T03:17:35;6.30;79.60
72338;DHT22;60294;64.134;-21.862;2022-08-21T03:20:06;6.30;79.80
72338;DHT22;60294;64.134;-21.862;2022-08-21T03:22:32;6.30;79.60
72338;DHT22;60294;64.134;-21.862;2022-08-21T03:24:58;6.40;79.40
72338;DHT22;60294;64.134;-21.862;2022-08-21T03:27:25;6.40;79.60
72338;DHT22;60294;64.134;-21.862;2022-08-21T03:29:54;6.30;79.80
72338;DHT22;60294;64.134;-21.862;2022-08-21T03:32:20;6.40;79.40
72338;DHT22;60294;64.134;-21.862;2022-08-21T03:34:46;6.30;79.50
72338;DHT22;60294;64.134;-21.862;2022-08-21T03:37:15;6.20;79.80
72338;DHT22;60294;64.134;-21.862;2022-08-21T03:39:43;6.20;79.80
72338;DHT22;60294;64.134;-21.862;2022-08-21T03:42:10;6.30;79.90
72338;DHT22;60294;64.134;-21.862;2022-08-21T03:44:37;6.20;79.60
72338;DHT22;60294;64.134;-21.862;2022-08-21T03:47:03;6.20;79.70
72338;DHT22;60294;64.134;-21.862;2022-08-21T03:49:29;6.10;80.30
72338;DHT22;60294;64.134;-21.862;2022-08-21T03:51:55;6.10;80.40
72338;DHT22;60294;64.134;-21.862;2022-08-21T03:54:21;6.10;80.60
72338;DHT22;60294;64.134;-21.862;2022-08-21T03:56:47;6.10;80.40
72338;DHT22;60294;64.134;-21.862;2022-08-21T03:59:13;6.10;81.10
72338;DHT22;60294;64.134;-21.862;2022-08-21T04:01:39;6.10;81.00
72338;DHT22;60294;64.134;-21.862;2022-08-21T04:04:05;6.10;81.10
72338;DHT22;60294;64.134;-21.862;2022-08-21T04:06:32;6.10;81.10
72338;DHT22;60294;64.134;-21.862;2022-08-21T04:08:58;6.10;80.60
72338;DHT22;60294;64.134;-21.862;2022-08-21T04:11:23;6.10;80.40
72338;DHT22;60294;64.134;-21.862;2022-08-21T04:13:49;6.00;80.60
72338;DHT22;60294;64.134;-21.862;2022-08-21T04:16:15;5.90;81.00
72338;DHT22;60294;64.134;-21.862;2022-08-21T04:18:42;5.90;80.70
72338;DHT22;60294;64.134;-21.862;2022-08-21T04:21:09;5.90;81.70
72338;DHT22;60294;64.134;-21.862;2022-08-21T04:23:37;5.80;80.80
72338;DHT22;60294;64.134;-21.862;2022-08-21T04:26:03;5.70;81.10
72338;DHT22;60294;64.134;-21.862;2022-08-21T04:28:28;5.80;81.10
72338;DHT22;60294;64.134;-21.862;2022-08-21T04:30:55;5.90;81.00
72338;DHT22;60294;64.134;-21.862;2022-08-21T04:33:22;5.90;80.60
72338;DHT22;60294;64.134;-21.862;2022-08-21T04:35:48;6.00;80.90
72338;DHT22;60294;64.134;-21.862;2022-08-21T04:38:15;6.00;80.30
72338;DHT22;60294;64.134;-21.862;2022-08-21T04:40:40;6.00;80.40
72338;DHT22;60294;64.134;-21.862;2022-08-21T04:43:09;6.00;80.40
72338;DHT22;60294;64.134;-21.862;2022-08-21T04:45:39;6.00;80.10
72338;DHT22;60294;64.134;-21.862;2022-08-21T04:48:08;6.00;80.10
72338;DHT22;60294;64.134;-21.862;2022-08-21T04:56:06;5.90;79.90
72338;DHT22;60294;64.134;-21.862;2022-08-21T04:58:35;5.80;80.20
72338;DHT22;60294;64.134;-21.862;2022-08-21T05:01:04;5.80;80.40
72338;DHT22;60294;64.134;-21.862;2022-08-21T05:03:32;5.60;80.30
72338;DHT22;60294;64.134;-21.862;2022-08-21T05:06:00;5.60;80.20
72338;DHT22;60294;64.134;-21.862;2022-08-21T05:08:27;5.50;80.30
72338;DHT22;60294;64.134;-21.862;2022-08-21T05:10:54;5.50;80.30
72338;DHT22;60294;64.134;-21.862;2022-08-21T05:13:20;5.40;80.60
72338;DHT22;60294;64.134;-21.862;2022-08-21T05:15:46;5.50;80.60
72338;DHT22;60294;64.134;-21.862;2022-08-21T05:18:12;5.50;80.80
72338;DHT22;60294;64.134;-21.862;2022-08-21T05:20:38;5.60;81.00
72338;DHT22;60294;64.134;-21.862;2022-08-21T05:23:08;5.60;80.20
72338;DHT22;60294;64.134;-21.862;2022-08-21T05:25:35;5.50;80.40
72338;DHT22;60294;64.134;-21.862;2022-08-21T05:28:00;5.60;80.20
72338;DHT22;60294;64.134;-21.862;2022-08-21T05:30:26;5.50;79.80
72338;DHT22;60294;64.134;-21.862;2022-08-21T05:33:00;5.60;80.20
72338;DHT22;60294;64.134;-21.862;2022-08-21T05:35:28;5.60;79.80
72338;DHT22;60294;64.134;-21.862;2022-08-21T05:37:54;5.60;80.00
72338;DHT22;60294;64.134;-21.862;2022-08-21T05:40:20;5.60;79.70
72338;DHT22;60294;64.134;-21.862;2022-08-21T05:42:46;5.70;79.70
72338;DHT22;60294;64.134;-21.862;2022-08-21T05:45:12;5.70;79.30
72338;DHT22;60294;64.134;-21.862;2022-08-21T05:47:38;5.60;80.20
72338;DHT22;60294;64.134;-21.862;2022-08-21T05:50:05;5.60;80.10
72338;DHT22;60294;64.134;-21.862;2022-08-21T05:52:31;5.60;79.70
72338;DHT22;60294;64.134;-21.862;2022-08-21T05:54:57;5.40;80.10
72338;DHT22;60294;64.134;-21.862;2022-08-21T05:57:23;5.60;80.20
72338;DHT22;60294;64.134;-21.862;2022-08-21T05:59:50;5.60;79.90
72338;DHT22;60294;64.134;-21.862;2022-08-21T06:02:20;5.60;79.80
72338;DHT22;60294;64.134;-21.862;2022-08-21T06:04:46;5.60;79.70
72338;DHT22;60294;64.134;-21.862;2022-08-21T06:07:13;5.60;79.90
72338;DHT22;60294;64.134;-21.862;2022-08-21T06:09:38;5.60;79.80
72338;DHT22;60294;64.134;-21.862;2022-08-21T06:12:10;5.50;80.20
72338;DHT22;60294;64.134;-21.862;2022-08-21T06:14:38;5.60;79.70
72338;DHT22;60294;64.134;-21.862;2022-08-21T06:17:06;5.60;79.70
72338;DHT22;60294;64.134;-21.862;2022-08-21T06:19:32;5.60;79.70
72338;DHT22;60294;64.134;-21.862;2022-08-21T06:21:58;5.60;79.80
72338;DHT22;60294;64.134;-21.862;2022-08-21T06:24:25;5.60;79.50
72338;DHT22;60294;64.134;-21.862;2022-08-21T06:26:51;5.60;79.50
72338;DHT22;60294;64.134;-21.862;2022-08-21T06:29:17;5.60;79.40
72338;DHT22;60294;64.134;-21.862;2022-08-21T06:31:44;5.80;79.10
72338;DHT22;60294;64.134;-21.862;2022-08-21T06:34:10;5.80;78.40
72338;DHT22;60294;64.134;-21.862;2022-08-21T06:36:36;5.80;78.40
72338;DHT22;60294;64.134;-21.862;2022-08-21T06:39:02;5.90;78.40
72338;DHT22;60294;64.134;-21.862;2022-08-21T06:41:29;6.10;77.70
72338;DHT22;60294;64.134;-21.862;2022-08-21T06:43:56;6.10;76.90
72338;DHT22;60294;64.134;-21.862;2022-08-21T06:46:24;6.10;77.30
72338;DHT22;60294;64.134;-21.862;2022-08-21T06:48:50;6.30;76.30
72338;DHT22;60294;64.134;-21.862;2022-08-21T06:51:16;6.20;76.10
72338;DHT22;60294;64.134;-21.862;2022-08-21T06:53:42;6.30;76.10
72338;DHT22;60294;64.134;-21.862;2022-08-21T06:56:07;6.40;76.20
72338;DHT22;60294;64.134;-21.862;2022-08-21T06:58:33;6.30;75.50
72338;DHT22;60294;64.134;-21.862;2022-08-21T07:00:59;6.30;75.30
72338;DHT22;60294;64.134;-21.862;2022-08-21T07:03:31;6.50;75.10
72338;DHT22;60294;64.134;-21.862;2022-08-21T07:05:57;6.50;74.80
72338;DHT22;60294;64.134;-21.862;2022-08-21T07:08:25;6.60;74.50
72338;DHT22;60294;64.134;-21.862;2022-08-21T07:10:53;6.60;74.00
72338;DHT22;60294;64.134;-21.862;2022-08-21T07:13:19;6.50;74.20
72338;DHT22;60294;64.134;-21.862;2022-08-21T07:15:45;6.50;74.60
72338;DHT22;60294;64.134;-21.862;2022-08-21T07:18:11;6.60;74.70
72338;DHT22;60294;64.134;-21.862;2022-08-21T07:20:38;6.70;74.30
72338;DHT22;60294;64.134;-21.862;2022-08-21T07:23:08;6.70;74.20
72338;DHT22;60294;64.134;-21.862;2022-08-21T07:25:34;6.80;73.70
72338;DHT22;60294;64.134;-21.862;2022-08-21T07:28:01;7.00;73.70
72338;DHT22;60294;64.134;-21.862;2022-08-21T07:30:27;7.10;73.30
72338;DHT22;60294;64.134;-21.862;2022-08-21T07:32:53;7.20;73.00
72338;DHT22;60294;64.134;-21.862;2022-08-21T07:35:20;7.20;72.70
72338;DHT22;60294;64.134;-21.862;2022-08-21T07:37:46;7.40;72.70
72338;DHT22;60294;64.134;-21.862;2022-08-21T07:40:13;7.50;72.70
72338;DHT22;60294;64.134;-21.862;2022-08-21T07:42:44;7.60;73.10
72338;DHT22;60294;64.134;-21.862;2022-08-21T07:45:12;7.60;72.60
72338;DHT22;60294;64.134;-21.862;2022-08-21T07:47:38;7.70;73.50
72338;DHT22;60294;64.134;-21.862;2022-08-21T07:50:05;7.80;73.30
72338;DHT22;60294;64.134;-21.862;2022-08-21T07:52:32;7.90;73.20
72338;DHT22;60294;64.134;-21.862;2022-08-21T07:54:58;8.00;73.80
72338;DHT22;60294;64.134;-21.862;2022-08-21T07:57:25;8.10;74.60
72338;DHT22;60294;64.134;-21.862;2022-08-21T07:59:50;8.10;74.10
72338;DHT22;60294;64.134;-21.862;2022-08-21T08:02:28;8.20;74.00
72338;DHT22;60294;64.134;-21.862;2022-08-21T08:05:02;8.30;74.60
72338;DHT22;60294;64.134;-21.862;2022-08-21T08:07:28;8.40;74.30
72338;DHT22;60294;64.134;-21.862;2022-08-21T08:09:54;8.50;73.60
72338;DHT22;60294;64.134;-21.862;2022-08-21T08:12:20;8.40;73.00
72338;DHT22;60294;64.134;-21.862;2022-08-21T08:14:47;8.40;73.60
72338;DHT22;60294;64.134;-21.862;2022-08-21T08:17:13;8.50;73.30
72338;DHT22;60294;64.134;-21.862;2022-08-21T08:19:39;8.60;72.50
72338;DHT22;60294;64.134;-21.862;2022-08-21T08:22:16;8.60;72.40
72338;DHT22;60294;64.134;-21.862;2022-08-21T08:24:43;8.70;72.00
72338;DHT22;60294;64.134;-21.862;2022-08-21T08:27:08;8.80;71.80
72338;DHT22;60294;64.134;-21.862;2022-08-21T08:29:34;8.90;71.30
72338;DHT22;60294;64.134;-21.862;2022-08-21T08:32:00;8.90;71.40
72338;DHT22;60294;64.134;-21.862;2022-08-21T08:34:26;8.80;70.60
72338;DHT22;60294;64.134;-21.862;2022-08-21T08:36:52;8.90;70.40
72338;DHT22;60294;64.134;-21.862;2022-08-21T08:39:18;9.00;70.40
72338;DHT22;60294;64.134;-21.862;2022-08-21T08:41:47;8.90;70.70
72338;DHT22;60294;64.134;-21.862;2022-08-21T08:44:13;8.90;71.30
72338;DHT22;60294;64.134;-21.862;2022-08-21T08:46:47;8.90;68.90
72338;DHT22;60294;64.134;-21.862;2022-08-21T08:52:17;8.90;69.10
72338;DHT22;60294;64.134;-21.862;2022-08-21T08:55:09;8.90;69.80
72338;DHT22;60294;64.134;-21.862;2022-08-21T08:57:38;9.10;69.10
72338;DHT22;60294;64.134;-21.862;2022-08-21T09:00:09;9.20;68.40
72338;DHT22;60294;64.134;-21.862;2022-08-21T09:02:38;9.20;67.50
72338;DHT22;60294;64.134;-21.862;2022-08-21T09:05:06;9.30;68.00
72338;DHT22;60294;64.134;-21.862;2022-08-21T09:10:18;9.50;66.70
72338;DHT22;60294;64.134;-21.862;2022-08-21T09:13:51;9.50;66.20
72338;DHT22;60294;64.134;-21.862;2022-08-21T09:16:08;9.50;66.20
72338;DHT22;60294;64.134;-21.862;2022-08-21T09:18:58;9.60;66.00
72338;DHT22;60294;64.134;-21.862;2022-08-21T09:21:47;9.70;65.80
72338;DHT22;60294;64.134;-21.862;2022-08-21T09:24:29;9.70;66.20
72338;DHT22;60294;64.134;-21.862;2022-08-21T09:27:09;9.80;65.50
72338;DHT22;60294;64.134;-21.862;2022-08-21T09:29:39;9.90;64.60
72338;DHT22;60294;64.134;-21.862;2022-08-21T09:32:13;9.90;65.00
72338;DHT22;60294;64.134;-21.862;2022-08-21T09:34:40;10.10;65.00
72338;DHT22;60294;64.134;-21.862;2022-08-21T09:37:17;10.10;64.10
72338;DHT22;60294;64.134;-21.862;2022-08-21T09:39:43;10.20;63.60
72338;DHT22;60294;64.134;-21.862;2022-08-21T09:42:10;10.20;63.80
72338;DHT22;60294;64.134;-21.862;2022-08-21T09:44:39;10.40;63.90
72338;DHT22;60294;64.134;-21.862;2022-08-21T09:47:07;10.30;63.60
72338;DHT22;60294;64.134;-21.862;2022-08-21T09:49:36;10.40;64.00
72338;DHT22;60294;64.134;-21.862;2022-08-21T09:52:21;10.60;63.60
72338;DHT22;60294;64.134;-21.862;2022-08-21T09:54:52;10.60;63.30
72338;DHT22;60294;64.134;-21.862;2022-08-21T09:57:26;10.70;62.70
72338;DHT22;60294;64.134;-21.862;2022-08-21T10:00:28;10.80;62.40
72338;DHT22;60294;64.134;-21.862;2022-08-21T10:03:12;10.90;61.40
72338;DHT22;60294;64.134;-21.862;2022-08-21T10:05:39;10.90;62.00
72338;DHT22;60294;64.134;-21.862;2022-08-21T10:08:16;11.00;62.00
72338;DHT22;60294;64.134;-21.862;2022-08-21T10:10:42;11.20;62.00
72338;DHT22;60294;64.134;-21.862;2022-08-21T10:22:23;11.30;61.00
72338;DHT22;60294;64.134;-21.862;2022-08-21T10:28:01;11.50;61.00
72338;DHT22;60294;64.134;-21.862;2022-08-21T10:30:43;11.60;60.20
72338;DHT22;60294;64.134;-21.862;2022-08-21T10:36:18;11.60;59.00
72338;DHT22;60294;64.134;-21.862;2022-08-21T10:41:43;11.90;59.80
72338;DHT22;60294;64.134;-21.862;2022-08-21T10:50:10;12.00;57.60
72338;DHT22;60294;64.134;-21.862;2022-08-21T10:53:12;12.10;58.70
72338;DHT22;60294;64.134;-21.862;2022-08-21T10:58:51;12.30;58.30
72338;DHT22;60294;64.134;-21.862;2022-08-21T11:01:49;12.50;58.10
72338;DHT22;60294;64.134;-21.862;2022-08-21T11:04:32;12.40;58.40
72338;DHT22;60294;64.134;-21.862;2022-08-21T11:09:43;12.50;58.30
72338;DHT22;60294;64.134;-21.862;2022-08-21T11:12:42;12.60;59.00
72338;DHT22;60294;64.134;-21.862;2022-08-21T11:15:33;12.60;57.20
72338;DHT22;60294;64.134;-21.862;2022-08-21T11:26:39;12.60;56.40
72338;DHT22;60294;64.134;-21.862;2022-08-21T11:29:29;12.60;56.60
72338;DHT22;60294;64.134;-21.862;2022-08-21T11:45:55;12.80;56.70
72338;DHT22;60294;64.134;-21.862;2022-08-21T11:51:19;12.90;55.90
72338;DHT22;60294;64.134;-21.862;2022-08-21T11:54:07;13.00;57.00
72338;DHT22;60294;64.134;-21.862;2022-08-21T11:56:39;13.10;56.00
72338;DHT22;60294;64.134;-21.862;2022-08-21T11:59:20;13.10;56.10
72338;DHT22;60294;64.134;-21.862;2022-08-21T12:01:49;13.10;55.90
72338;DHT22;60294;64.134;-21.862;2022-08-21T12:04:32;13.20;56.10
72338;DHT22;60294;64.134;-21.862;2022-08-21T12:07:15;13.40;55.90
72338;DHT22;60294;64.134;-21.862;2022-08-21T12:09:51;13.40;54.80
72338;DHT22;60294;64.134;-21.862;2022-08-21T12:12:32;13.30;53.90
72338;DHT22;60294;64.134;-21.862;2022-08-21T12:17:40;13.20;55.80
72338;DHT22;60294;64.134;-21.862;2022-08-21T12:20:35;12.80;56.10
72338;DHT22;60294;64.134;-21.862;2022-08-21T12:23:16;13.20;56.50
72338;DHT22;60294;64.134;-21.862;2022-08-21T12:26:00;13.50;56.20
72338;DHT22;60294;64.134;-21.862;2022-08-21T12:28:27;13.80;53.70
72338;DHT22;60294;64.134;-21.862;2022-08-21T12:30:54;13.90;53.90
72338;DHT22;60294;64.134;-21.862;2022-08-21T12:36:02;14.10;53.00
72338;DHT22;60294;64.134;-21.862;2022-08-21T12:38:32;14.10;51.90
72338;DHT22;60294;64.134;-21.862;2022-08-21T12:41:04;13.80;52.40
72338;DHT22;60294;64.134;-21.862;2022-08-21T12:43:37;13.80;52.80
72338;DHT22;60294;64.134;-21.862;2022-08-21T12:46:04;13.70;53.40
72338;DHT22;60294;64.134;-21.862;2022-08-21T12:48:41;13.20;53.40
72338;DHT22;60294;64.134;-21.862;2022-08-21T12:51:23;13.40;54.80
72338;DHT22;60294;64.134;-21.862;2022-08-21T12:53:54;13.60;54.50
72338;DHT22;60294;64.134;-21.862;2022-08-21T12:56:22;13.50;52.70
72338;DHT22;60294;64.134;-21.862;2022-08-21T12:58:53;13.50;53.20
72338;DHT22;60294;64.134;-21.862;2022-08-21T13:01:26;13.50;52.70
72338;DHT22;60294;64.134;-21.862;2022-08-21T13:03:56;13.60;52.60
72338;DHT22;60294;64.134;-21.862;2022-08-21T13:06:23;13.70;52.90
72338;DHT22;60294;64.134;-21.862;2022-08-21T13:08:56;13.80;52.90
72338;DHT22;60294;64.134;-21.862;2022-08-21T13:11:23;13.60;52.10
72338;DHT22;60294;64.134;-21.862;2022-08-21T13:13:51;13.60;52.70
72338;DHT22;60294;64.134;-21.862;2022-08-21T13:16:26;13.50;53.40
72338;DHT22;60294;64.134;-21.862;2022-08-21T13:19:04;13.40;52.80
72338;DHT22;60294;64.134;-21.862;2022-08-21T13:21:33;13.50;53.30
72338;DHT22;60294;64.134;-21.862;2022-08-21T13:26:37;13.60;53.30
72338;DHT22;60294;64.134;-21.862;2022-08-21T13:29:12;13.60;52.50
72338;DHT22;60294;64.134;-21.862;2022-08-21T13:31:39;13.70;52.30
72338;DHT22;60294;64.134;-21.862;2022-08-21T13:34:09;13.80;52.20
72338;DHT22;60294;64.134;-21.862;2022-08-21T13:36:39;14.10;52.40
72338;DHT22;60294;64.134;-21.862;2022-08-21T13:39:12;14.20;50.30
72338;DHT22;60294;64.134;-21.862;2022-08-21T13:41:44;14.40;49.90
72338;DHT22;60294;64.134;-21.862;2022-08-21T13:44:23;14.90;49.40
72338;DHT22;60294;64.134;-21.862;2022-08-21T13:46:53;15.40;48.70
72338;DHT22;60294;64.134;-21.862;2022-08-21T13:49:23;15.90;46.60
72338;DHT22;60294;64.134;-21.862;2022-08-21T13:51:51;16.20;45.20
72338;DHT22;60294;64.134;-21.862;2022-08-21T13:54:33;16.60;45.00
72338;DHT22;60294;64.134;-21.862;2022-08-21T13:56:59;16.80;44.30
72338;DHT22;60294;64.134;-21.862;2022-08-21T13:59:29;17.10;44.20
72338;DHT22;60294;64.134;-21.862;2022-08-21T14:02:16;16.60;44.70
72338;DHT22;60294;64.134;-21.862;2022-08-21T14:04:55;17.20;43.60
72338;DHT22;60294;64.134;-21.862;2022-08-21T14:10:20;17.10;42.30
72338;DHT22;60294;64.134;-21.862;2022-08-21T14:12:55;17.10;43.80
72338;DHT22;60294;64.134;-21.862;2022-08-21T14:15:25;17.00;43.00
72338;DHT22;60294;64.134;-21.862;2022-08-21T14:17:57;16.90;42.80
72338;DHT22;60294;64.134;-21.862;2022-08-21T14:20:34;16.80;45.20
72338;DHT22;60294;64.134;-21.862;2022-08-21T14:23:01;17.10;42.90
72338;DHT22;60294;64.134;-21.862;2022-08-21T14:25:50;17.60;41.70
72338;DHT22;60294;64.134;-21.862;2022-08-21T14:28:26;17.60;41.90
72338;DHT22;60294;64.134;-21.862;2022-08-21T14:30:52;18.70;40.30
72338;DHT22;60294;64.134;-21.862;2022-08-21T14:33:28;18.10;41.10
72338;DHT22;60294;64.134;-21.862;2022-08-21T14:35:54;18.20;38.90
72338;DHT22;60294;64.134;-21.862;2022-08-21T14:38:22;18.10;40.40
72338;DHT22;60294;64.134;-21.862;2022-08-21T14:40:55;18.10;41.60
72338;DHT22;60294;64.134;-21.862;2022-08-21T14:43:22;18.20;41.30
72338;DHT22;60294;64.134;-21.862;2022-08-21T14:45:48;17.90;40.80
72338;DHT22;60294;64.134;-21.862;2022-08-21T14:48:15;17.60;42.80
72338;DHT22;60294;64.134;-21.862;2022-08-21T14:50:41;16.60;44.10
72338;DHT22;60294;64.134;-21.862;2022-08-21T14:53:09;17.10;44.30
72338;DHT22;60294;64.134;-21.862;2022-08-21T14:55:36;17.10;44.10
72338;DHT22;60294;64.134;-21.862;2022-08-21T14:58:22;17.00;44.30
72338;DHT22;60294;64.134;-21.862;2022-08-21T15:00:49;16.30;46.40
72338;DHT22;60294;64.134;-21.862;2022-08-21T15:03:16;16.40;45.70
72338;DHT22;60294;64.134;-21.862;2022-08-21T15:05:42;16.70;45.00
72338;DHT22;60294;64.134;-21.862;2022-08-21T15:08:07;16.40;46.50
72338;DHT22;60294;64.134;-21.862;2022-08-21T15:10:34;17.40;44.40
72338;DHT22;60294;64.134;-21.862;2022-08-21T15:13:02;17.80;43.10
72338;DHT22;60294;64.134;-21.862;2022-08-21T15:15:35;17.00;44.90
72338;DHT22;60294;64.134;-21.862;2022-08-21T15:18:03;16.60;45.40
72338;DHT22;60294;64.134;-21.862;2022-08-21T15:20:29;17.50;43.40
72338;DHT22;60294;64.134;-21.862;2022-08-21T15:22:55;17.50;44.10
72338;DHT22;60294;64.134;-21.862;2022-08-21T15:25:21;17.10;43.90
72338;DHT22;60294;64.134;-21.862;2022-08-21T15:27:47;16.70;45.40
72338;DHT22;60294;64.134;-21.862;2022-08-21T15:30:14;17.70;43.20
72338;DHT22;60294;64.134;-21.862;2022-08-21T15:32:40;18.30;42.60
72338;DHT22;60294;64.134;-21.862;2022-08-21T15:35:08;17.60;42.70
72338;DHT22;60294;64.134;-21.862;2022-08-21T15:37:34;17.60;43.40
72338;DHT22;60294;64.134;-21.862;2022-08-21T15:40:00;17.30;43.10
72338;DHT22;60294;64.134;-21.862;2022-08-21T15:42:27;16.80;44.50
72338;DHT22;60294;64.134;-21.862;2022-08-21T15:44:54;17.00;43.90
72338;DHT22;60294;64.134;-21.862;2022-08-21T15:47:27;16.80;43.90
72338;DHT22;60294;64.134;-21.862;2022-08-21T15:49:54;17.20;44.20
72338;DHT22;60294;64.134;-21.862;2022-08-21T15:52:21;17.50;43.20
72338;DHT22;60294;64.134;-21.862;2022-08-21T15:54:47;17.40;43.30
72338;DHT22;60294;64.134;-21.862;2022-08-21T15:57:17;17.30;42.70
72338;DHT22;60294;64.134;-21.862;2022-08-21T15:59:49;16.90;42.90
72338;DHT22;60294;64.134;-21.862;2022-08-21T16:02:28;16.80;43.90
72338;DHT22;60294;64.134;-21.862;2022-08-21T16:04:56;16.10;44.90
72338;DHT22;60294;64.134;-21.862;2022-08-21T16:07:22;16.30;45.30
72338;DHT22;60294;64.134;-21.862;2022-08-21T16:09:48;16.30;45.40
72338;DHT22;60294;64.134;-21.862;2022-08-21T16:12:25;16.20;45.70
72338;DHT22;60294;64.134;-21.862;2022-08-21T16:14:52;16.40;45.30
72338;DHT22;60294;64.134;-21.862;2022-08-21T16:17:20;16.20;44.70
72338;DHT22;60294;64.134;-21.862;2022-08-21T16:19:49;16.30;44.70
72338;DHT22;60294;64.134;-21.862;2022-08-21T16:22:15;16.40;44.90
72338;DHT22;60294;64.134;-21.862;2022-08-21T16:24:41;16.20;43.90
72338;DHT22;60294;64.134;-21.862;2022-08-21T16:27:07;16.10;44.40
72338;DHT22;60294;64.134;-21.862;2022-08-21T16:29:35;16.20;45.20
72338;DHT22;60294;64.134;-21.862;2022-08-21T16:32:02;16.10;45.00
72338;DHT22;60294;64.134;-21.862;2022-08-21T16:34:28;16.10;44.80
72338;DHT22;60294;64.134;-21.862;2022-08-21T16:36:54;16.30;45.20
72338;DHT22;60294;64.134;-21.862;2022-08-21T16:39:20;16.30;44.20
72338;DHT22;60294;64.134;-21.862;2022-08-21T16:41:47;16.50;45.10
72338;DHT22;60294;64.134;-21.862;2022-08-21T16:44:15;16.80;44.60